»·PEaware :: ROPER72 KLSV-KLSV

ROPER72 :: KLSV-KLSV

FLIGHT INFORMATION

Flight Status: Arrived
Operator: Unknown
More flights by this operator :: More flights under this callsign
Pilot: Anonymous 3903 (3903)
Aircraft: NORTHROP F-5 FREEDON FIGHTER
(F5)
More flights by this aircraft type
Origin: KLSV Nellis AFB
United States
Destination: KLSV Nellis AFB
United States
More flights between these airports :: More routes between these airports
Route: +DREAM6 JUNNO
File this flight plan on PilotEdge
Remarks: Multi Apps / / Custom IFR WX
Altitude:
(Current/Filed)
9,000ft
Speed:
(Current/Filed)
350kts
Departed: 30-Nov-18 08:58 PM
Arrived: 30-Nov-18 10:06 PM
Distance/Time
Traveled:
1nm/1:07
Distance/Time
To Go:
Arrived

Flight Plot

Page will automatically refresh every two minutes.

Flight plan parsing failed; only flown route is shown


Map Options




Map Legend


Flown Route
Filed Route
Departure Airport
Arrival Airport
Navaid (VOR, NDB)
Fix

Horizontal Profiles

Position Reports

Time Latitude Longitude Heading Altitude Ground
Speed
30-Nov-18 20:39 36.229946 -115.047437 220 1852ft 0kts
30-Nov-18 20:40 36.229946 -115.047437 220 1852ft 0kts
30-Nov-18 20:41 36.229946 -115.047437 220 1852ft 0kts
30-Nov-18 20:42 36.229946 -115.047437 220 1852ft 0kts
30-Nov-18 20:43 36.229946 -115.047437 220 1852ft 0kts
30-Nov-18 20:44 36.229946 -115.047437 220 1852ft 0kts
30-Nov-18 20:45 36.229946 -115.047437 220 1852ft 0kts
30-Nov-18 20:46 36.229946 -115.047437 220 1852ft 0kts
30-Nov-18 20:47 36.229946 -115.047437 220 1852ft 0kts
30-Nov-18 20:48 36.229946 -115.047437 220 1852ft 0kts
30-Nov-18 20:49 36.229946 -115.047437 220 1852ft 0kts
30-Nov-18 20:50 36.229946 -115.047437 220 1852ft 0kts
30-Nov-18 20:51 36.229946 -115.047437 220 1852ft 0kts
30-Nov-18 20:52 36.229946 -115.047437 220 1852ft 0kts
30-Nov-18 20:53 36.229946 -115.047437 220 1852ft 0kts
30-Nov-18 20:54 36.229946 -115.047437 220 1852ft 0kts
30-Nov-18 20:55 36.229946 -115.047437 220 1852ft 0kts
30-Nov-18 20:56 36.229946 -115.047437 220 1852ft 0kts
30-Nov-18 20:57 36.228605 -115.047104 221 1850ft 16kts
30-Nov-18 20:58 36.227317 -115.047466 129 1848ft 0kts
30-Nov-18 20:59 36.226857 -115.046733 103 1846ft 16kts
30-Nov-18 21:00 36.227401 -115.045986 41 1846ft 18kts
30-Nov-18 21:01 36.272531 -114.995699 38 4236ft 307kts
30-Nov-18 21:02 36.345327 -114.924264 42 8936ft 373kts
30-Nov-18 21:03 36.440767 -114.893893 6 9009ft 348kts
30-Nov-18 21:04 36.529282 -114.863738 58 7602ft 349kts
30-Nov-18 21:05 36.499699 -114.778949 178 6749ft 320kts
30-Nov-18 21:06 36.422984 -114.818015 218 5077ft 270kts
30-Nov-18 21:07 36.374127 -114.879988 220 4668ft 275kts
30-Nov-18 21:08 36.316475 -114.942357 215 4389ft 259kts
30-Nov-18 21:09 36.271466 -114.995477 225 2487ft 219kts
30-Nov-18 21:10 36.221657 -115.054365 223 4945ft 260kts
30-Nov-18 21:11 36.237766 -115.136571 331 8899ft 325kts
30-Nov-18 21:12 36.321628 -115.112522 30 13280ft 333kts
30-Nov-18 21:13 36.409971 -115.045447 34 15166ft 412kts
30-Nov-18 21:14 36.503978 -114.970700 17 15109ft 390kts
30-Nov-18 21:15 36.606138 -114.939859 9 15140ft 362kts
30-Nov-18 21:16 36.705364 -114.915072 9 15171ft 373kts
30-Nov-18 21:17 36.806466 -114.871812 45 15201ft 404kts
30-Nov-18 21:18 36.874697 -114.759305 43 15201ft 398kts
30-Nov-18 21:19 36.955921 -114.788490 273 15147ft 350kts
30-Nov-18 21:20 36.910853 -114.887441 227 15168ft 337kts
30-Nov-18 21:21 36.838284 -114.952579 177 15022ft 339kts
30-Nov-18 21:22 36.746636 -114.927271 166 15063ft 339kts
30-Nov-18 21:23 36.645938 -114.935548 192 15072ft 365kts
30-Nov-18 21:24 36.570936 -114.897393 100 13428ft 321kts
30-Nov-18 21:25 36.538810 -114.788184 121 10653ft 345kts
30-Nov-18 21:26 36.468371 -114.756939 222 7387ft 337kts
30-Nov-18 21:27 36.410381 -114.833188 219 5946ft 292kts
30-Nov-18 21:28 36.350938 -114.901515 217 4573ft 285kts
30-Nov-18 21:29 36.296486 -114.966742 220 3916ft 246kts
30-Nov-18 21:30 36.249617 -115.017955 221 2607ft 238kts
30-Nov-18 21:31 36.213634 -115.093676 279 6411ft 315kts
30-Nov-18 21:32 36.293108 -115.131716 23 11223ft 370kts
30-Nov-18 21:33 36.385186 -115.054421 34 14655ft 407kts
30-Nov-18 21:34 36.479955 -114.975102 29 15172ft 420kts
30-Nov-18 21:35 36.594343 -114.938154 4 15170ft 428kts
30-Nov-18 21:36 36.675273 -115.015042 265 15084ft 383kts
30-Nov-18 21:37 36.650655 -115.139380 248 15139ft 361kts
30-Nov-18 21:38 36.614038 -115.253554 225 15120ft 347kts
30-Nov-18 21:39 36.543613 -115.334732 221 14967ft 345kts
30-Nov-18 21:40 36.471333 -115.417198 220 13980ft 358kts
30-Nov-18 21:41 36.387264 -115.403138 114 11967ft 368kts
30-Nov-18 21:42 36.351710 -115.290569 103 10520ft 340kts
30-Nov-18 21:43 36.399948 -115.203868 43 9632ft 320kts
30-Nov-18 21:44 36.445186 -115.113966 77 8950ft 309kts
30-Nov-18 21:45 36.452323 -115.000597 92 9066ft 335kts
30-Nov-18 21:46 36.425487 -114.891177 121 8089ft 333kts
30-Nov-18 21:47 36.354247 -114.865891 231 5972ft 329kts
30-Nov-18 21:48 36.313625 -114.949644 220 4611ft 238kts
30-Nov-18 21:49 36.269591 -114.995707 218 2600ft 197kts
30-Nov-18 21:50 36.232238 -115.037021 223 2319ft 186kts
30-Nov-18 21:51 36.228398 -115.109593 323 4987ft 294kts
30-Nov-18 21:52 36.301339 -115.094645 26 10548ft 303kts
30-Nov-18 21:53 36.388133 -115.037190 29 13971ft 390kts
30-Nov-18 21:54 36.478921 -114.969190 25 15115ft 365kts
30-Nov-18 21:55 36.576285 -114.943374 332 15132ft 350kts
30-Nov-18 21:56 36.596087 -115.054272 264 15136ft 382kts
30-Nov-18 21:57 36.565295 -115.175725 247 15031ft 361kts
30-Nov-18 21:58 36.519505 -115.281414 228 15152ft 337kts
30-Nov-18 21:59 36.444151 -115.355202 214 15203ft 357kts
30-Nov-18 22:00 36.363496 -115.354256 109 15157ft 366kts
30-Nov-18 22:01 36.369281 -115.234901 39 14758ft 364kts
30-Nov-18 22:02 36.436610 -115.144861 65 13733ft 363kts
30-Nov-18 22:03 36.455911 -115.041869 94 12449ft 368kts
30-Nov-18 22:04 36.432067 -114.904089 121 10694ft 351kts
30-Nov-18 22:05 36.370448 -114.858879 205 7561ft 336kts
30-Nov-18 22:06 36.311778 -114.949494 224 3644ft 246kts
30-Nov-18 22:07 36.278350 -114.987132 213 3126ft 176kts
30-Nov-18 22:08 36.238576 -115.029250 219 1850ft 109kts
30-Nov-18 22:09 36.225615 -115.043422 223 1846ft 31kts
30-Nov-18 22:10 36.228381 -115.048226 309 1850ft 15kts
30-Nov-18 22:11 36.228559 -115.049021 219 1851ft 0kts
30-Nov-18 22:12 36.228559 -115.049021 219 1851ft 0kts

Navigation Log

Ident Type
Flight plan parsing failed, navigation log unavailable